createdAt,value
2018-06-29T00:00:45.946Z,21.80
2018-06-29T00:03:13.095Z,21.80
2018-06-29T00:05:40.320Z,21.80
2018-06-29T00:08:07.515Z,21.70
2018-06-29T00:10:34.721Z,21.60
2018-06-29T00:13:01.945Z,21.60
2018-06-29T00:15:29.071Z,21.60
2018-06-29T00:17:56.199Z,21.60
2018-06-29T00:20:23.358Z,21.70
2018-06-29T00:22:50.475Z,21.70
2018-06-29T00:25:17.636Z,21.60
2018-06-29T00:27:44.855Z,21.70
2018-06-29T00:30:12.022Z,21.70
2018-06-29T00:32:39.233Z,21.70
2018-06-29T00:35:06.623Z,21.70
2018-06-29T00:37:33.804Z,21.70
2018-06-29T00:40:00.971Z,21.60
2018-06-29T00:44:55.351Z,21.70
2018-06-29T00:47:22.488Z,21.70
2018-06-29T00:49:49.781Z,21.70
2018-06-29T00:52:16.906Z,21.70
2018-06-29T00:54:44.110Z,21.70
2018-06-29T00:57:11.257Z,21.70
2018-06-29T00:59:38.553Z,21.90
2018-06-29T01:02:06.019Z,22.00
2018-06-29T01:04:33.174Z,22.00
2018-06-29T01:07:00.323Z,22.00
2018-06-29T01:09:27.462Z,22.00
2018-06-29T01:11:54.629Z,22.10
2018-06-29T01:16:48.983Z,22.20
2018-06-29T01:19:16.213Z,22.20
2018-06-29T01:21:43.390Z,22.30
2018-06-29T01:24:10.820Z,22.30
2018-06-29T01:26:37.998Z,22.20
2018-06-29T01:29:05.181Z,22.20
2018-06-29T01:31:32.335Z,22.20
2018-06-29T01:33:59.483Z,22.20
2018-06-29T01:36:26.643Z,22.20
2018-06-29T01:38:53.809Z,22.20
2018-06-29T01:41:20.993Z,22.10
2018-06-29T01:43:48.391Z,22.10
2018-06-29T01:46:15.635Z,22.10
2018-06-29T01:48:42.784Z,22.20
2018-06-29T01:51:09.952Z,22.20
2018-06-29T01:53:37.128Z,22.10
2018-06-29T01:56:04.295Z,22.10
2018-06-29T01:58:31.489Z,22.10
2018-06-29T02:00:58.654Z,22.00
2018-06-29T02:03:25.772Z,22.00
2018-06-29T02:05:52.910Z,22.00
2018-06-29T02:08:20.076Z,22.00
2018-06-29T02:10:47.205Z,22.00
2018-06-29T02:13:14.315Z,22.00
2018-06-29T02:15:41.478Z,21.90
2018-06-29T02:18:08.762Z,21.80
2018-06-29T02:20:36.082Z,21.90
2018-06-29T02:23:03.198Z,21.90
2018-06-29T02:25:30.362Z,21.90
2018-06-29T02:27:57.488Z,21.70
2018-06-29T02:32:51.770Z,21.80
2018-06-29T02:35:18.894Z,21.70
2018-06-29T02:37:46.010Z,21.80
2018-06-29T02:40:13.254Z,21.70
2018-06-29T02:42:40.435Z,21.70
2018-06-29T02:45:07.614Z,21.70
2018-06-29T02:47:34.817Z,21.70
2018-06-29T02:50:02.314Z,21.60
2018-06-29T02:52:29.447Z,21.60
2018-06-29T02:54:56.595Z,21.60
2018-06-29T02:57:23.754Z,21.60
2018-06-29T02:59:50.923Z,21.60
2018-06-29T03:02:18.322Z,21.60
2018-06-29T03:04:45.446Z,21.60
2018-06-29T03:07:12.570Z,21.60
2018-06-29T03:09:39.744Z,21.50
2018-06-29T03:12:06.898Z,21.50
2018-06-29T03:14:33.998Z,21.60
2018-06-29T03:17:01.106Z,21.60
2018-06-29T03:19:28.253Z,21.50
2018-06-29T03:21:55.402Z,21.60
2018-06-29T03:24:22.653Z,21.50
2018-06-29T03:26:49.755Z,21.60
2018-06-29T03:29:16.842Z,21.50
2018-06-29T03:31:43.962Z,21.50
2018-06-29T03:34:11.092Z,21.60
2018-06-29T03:36:38.200Z,21.50
2018-06-29T03:39:06.942Z,21.50
2018-06-29T03:41:34.423Z,21.60
2018-06-29T03:44:01.639Z,21.60
2018-06-29T03:46:28.753Z,21.60
2018-06-29T03:48:55.924Z,21.60
2018-06-29T03:51:23.048Z,21.60
2018-06-29T03:53:50.171Z,21.60
2018-06-29T03:56:17.300Z,21.60
2018-06-29T03:58:44.387Z,21.50
2018-06-29T04:01:11.502Z,21.60
2018-06-29T04:03:38.592Z,21.70
2018-06-29T04:06:05.771Z,21.60
2018-06-29T04:08:32.874Z,21.60
2018-06-29T04:10:59.998Z,21.60
2018-06-29T04:13:27.222Z,21.60
2018-06-29T04:15:54.386Z,21.60
2018-06-29T04:18:21.772Z,21.50
2018-06-29T04:20:48.882Z,21.50
2018-06-29T04:23:16.017Z,21.50
2018-06-29T04:25:43.118Z,21.50
2018-06-29T04:28:10.227Z,21.50
2018-06-29T04:30:37.362Z,21.50
2018-06-29T04:33:04.678Z,21.60
2018-06-29T04:35:31.797Z,21.50
2018-06-29T04:37:58.971Z,21.50
2018-06-29T04:40:26.175Z,21.50
2018-06-29T04:42:53.605Z,21.60
2018-06-29T04:45:20.712Z,21.60
2018-06-29T04:47:48.031Z,21.60
2018-06-29T04:50:15.394Z,21.60
2018-06-29T04:52:42.505Z,21.60
2018-06-29T04:55:09.611Z,21.60
2018-06-29T04:57:36.735Z,21.60
2018-06-29T05:00:04.313Z,21.60
2018-06-29T05:02:31.419Z,21.60
2018-06-29T05:04:58.538Z,21.60
2018-06-29T05:07:25.677Z,21.70
2018-06-29T05:09:53.081Z,21.70
2018-06-29T05:12:20.222Z,21.70
2018-06-29T05:14:47.325Z,21.80
2018-06-29T05:17:14.437Z,22.00
2018-06-29T05:19:41.546Z,22.00
2018-06-29T05:22:08.842Z,22.10
2018-06-29T05:24:35.946Z,22.20
2018-06-29T05:27:03.254Z,22.30
2018-06-29T05:29:30.386Z,22.40
2018-06-29T05:31:57.551Z,22.60
2018-06-29T05:34:24.741Z,22.70
2018-06-29T05:36:51.937Z,22.90
2018-06-29T05:39:19.125Z,23.10
2018-06-29T05:41:46.268Z,23.50
2018-06-29T05:44:13.314Z,23.70
2018-06-29T05:46:40.449Z,23.90
2018-06-29T05:49:08.414Z,25.10
2018-06-29T05:51:35.462Z,25.90
2018-06-29T05:54:02.629Z,28.30
2018-06-29T05:56:29.739Z,29.70
2018-06-29T05:58:56.965Z,30.10
2018-06-29T06:01:24.152Z,29.80
2018-06-29T06:03:51.307Z,29.50
2018-06-29T06:06:18.413Z,30.00
2018-06-29T06:08:46.325Z,31.30
2018-06-29T06:11:13.434Z,32.60
2018-06-29T06:13:40.521Z,34.80
2018-06-29T06:16:07.791Z,35.80
2018-06-29T06:18:34.902Z,36.40
2018-06-29T06:21:02.026Z,38.20
2018-06-29T06:23:29.182Z,38.00
2018-06-29T06:25:56.333Z,38.70
2018-06-29T06:28:23.586Z,39.50
2018-06-29T06:30:50.723Z,39.60
2018-06-29T06:33:17.810Z,40.30
2018-06-29T06:35:44.947Z,39.40
2018-06-29T06:38:12.143Z,39.50
2018-06-29T06:40:39.262Z,39.00
2018-06-29T06:43:06.382Z,38.80
2018-06-29T06:45:33.502Z,39.40
2018-06-29T06:48:00.593Z,38.60
2018-06-29T06:50:27.778Z,38.80
2018-06-29T06:52:55.091Z,38.90
2018-06-29T06:55:22.411Z,38.50
2018-06-29T07:00:16.678Z,38.20
2018-06-29T07:02:43.797Z,38.40
2018-06-29T07:05:10.922Z,38.60
2018-06-29T07:07:38.019Z,37.20
2018-06-29T07:10:05.317Z,37.50
2018-06-29T07:12:32.520Z,37.60
2018-06-29T07:14:59.691Z,37.90
2018-06-29T07:17:26.953Z,39.10
2018-06-29T07:19:58.401Z,38.10
2018-06-29T07:22:25.568Z,38.80
2018-06-29T07:24:52.775Z,39.50
2018-06-29T07:27:19.945Z,41.30
2018-06-29T07:29:47.062Z,41.70
2018-06-29T07:32:14.226Z,40.70
2018-06-29T07:34:41.345Z,39.50
2018-06-29T07:37:08.480Z,39.50
2018-06-29T07:39:35.597Z,39.60
2018-06-29T07:42:02.889Z,41.40
2018-06-29T07:44:29.985Z,41.60
2018-06-29T07:46:57.169Z,42.20
2018-06-29T07:51:51.498Z,43.60
2018-06-29T07:54:18.618Z,42.30
2018-06-29T07:56:45.733Z,42.10
2018-06-29T07:59:13.217Z,41.40
2018-06-29T08:01:40.323Z,41.10
2018-06-29T08:04:07.426Z,41.70
2018-06-29T08:06:34.569Z,41.40
2018-06-29T08:09:01.678Z,41.20
2018-06-29T08:11:28.787Z,40.70
2018-06-29T08:16:23.209Z,41.10
2018-06-29T08:18:50.317Z,41.20
2018-06-29T08:21:17.423Z,41.60
2018-06-29T08:23:44.526Z,41.80
2018-06-29T08:26:21.484Z,41.10
2018-06-29T08:28:48.586Z,40.60
2018-06-29T08:31:15.691Z,41.80
2018-06-29T08:33:42.799Z,41.90
2018-06-29T08:36:09.911Z,41.60
2018-06-29T08:38:37.485Z,41.90
2018-06-29T08:41:04.612Z,41.90
2018-06-29T08:43:31.772Z,39.20
2018-06-29T08:45:58.901Z,37.80
2018-06-29T08:48:26.180Z,35.60
2018-06-29T08:50:53.373Z,34.50
2018-06-29T08:53:20.494Z,34.00
2018-06-29T08:55:47.618Z,33.90
2018-06-29T08:58:14.723Z,35.20
2018-06-29T09:00:41.843Z,34.70
2018-06-29T09:03:08.941Z,36.00
2018-06-29T09:05:36.042Z,37.60
2018-06-29T09:08:03.324Z,39.20
2018-06-29T09:10:30.429Z,39.10
2018-06-29T09:12:57.589Z,40.00
2018-06-29T09:15:24.772Z,38.90
2018-06-29T09:20:19.097Z,40.30
2018-06-29T09:22:46.210Z,40.50
2018-06-29T09:25:13.560Z,39.70
2018-06-29T09:27:40.746Z,36.60
2018-06-29T09:30:08.093Z,36.50
2018-06-29T09:32:35.217Z,36.50
2018-06-29T09:35:02.467Z,37.10
2018-06-29T09:37:29.593Z,37.50
2018-06-29T09:39:56.798Z,38.50
2018-06-29T09:42:23.950Z,38.20
2018-06-29T09:44:51.073Z,36.90
2018-06-29T09:47:18.210Z,34.90
2018-06-29T09:49:45.329Z,34.00
2018-06-29T09:52:12.449Z,33.10
2018-06-29T09:54:39.554Z,33.10
2018-06-29T09:57:06.701Z,32.60
2018-06-29T09:59:33.850Z,31.60
2018-06-29T10:02:00.957Z,31.80
2018-06-29T10:04:28.099Z,31.70
2018-06-29T10:06:55.307Z,31.50
2018-06-29T10:11:49.606Z,31.00
2018-06-29T10:14:16.731Z,30.50
2018-06-29T10:19:10.939Z,30.10
2018-06-29T10:21:38.050Z,30.00
2018-06-29T10:24:05.180Z,29.90
2018-06-29T10:26:32.314Z,29.70
2018-06-29T10:29:00.037Z,29.10
2018-06-29T10:31:27.237Z,28.60
2018-06-29T10:33:54.375Z,28.40
2018-06-29T10:36:21.554Z,28.10
2018-06-29T10:38:48.736Z,28.40
2018-06-29T10:41:15.817Z,28.50
2018-06-29T10:43:42.913Z,28.40
2018-06-29T10:46:10.037Z,28.30
2018-06-29T10:48:37.143Z,28.10
2018-06-29T10:51:04.262Z,28.40
2018-06-29T10:53:31.387Z,28.70
2018-06-29T10:55:58.565Z,29.00
2018-06-29T10:58:25.762Z,29.10
2018-06-29T11:00:52.961Z,28.90
2018-06-29T11:03:20.077Z,29.00
2018-06-29T11:05:47.267Z,28.70
2018-06-29T11:08:14.399Z,28.50
2018-06-29T11:10:41.522Z,28.10
2018-06-29T11:13:08.664Z,27.90
2018-06-29T11:15:35.716Z,28.20
2018-06-29T11:18:02.848Z,28.70
2018-06-29T11:20:29.977Z,29.00
2018-06-29T11:22:57.138Z,29.30
2018-06-29T11:25:24.314Z,29.50
2018-06-29T11:27:51.452Z,29.10
2018-06-29T11:30:18.606Z,28.80
2018-06-29T11:32:45.731Z,28.60
2018-06-29T11:35:13.023Z,28.70
2018-06-29T11:37:40.142Z,29.00
2018-06-29T11:40:07.261Z,29.20
2018-06-29T11:42:34.372Z,29.40
2018-06-29T11:45:01.498Z,29.50
2018-06-29T11:47:28.694Z,29.20
2018-06-29T11:49:55.989Z,29.40
2018-06-29T11:52:23.277Z,29.40
2018-06-29T11:54:50.374Z,29.40
2018-06-29T11:57:17.466Z,29.40
2018-06-29T11:59:44.802Z,29.30
2018-06-29T12:02:11.942Z,28.90
2018-06-29T12:04:39.046Z,28.80
2018-06-29T12:07:06.164Z,28.70
2018-06-29T12:09:33.254Z,28.60
2018-06-29T12:12:00.516Z,28.70
2018-06-29T12:14:27.779Z,28.70
2018-06-29T12:16:55.075Z,28.80
2018-06-29T12:19:22.222Z,29.00
2018-06-29T12:21:49.330Z,29.20
2018-06-29T12:24:16.417Z,29.10
2018-06-29T12:26:43.522Z,29.30
2018-06-29T12:29:10.707Z,29.30
2018-06-29T12:31:37.837Z,29.40
2018-06-29T12:34:05.053Z,29.50
2018-06-29T12:36:32.264Z,29.40
2018-06-29T12:38:59.371Z,29.20
2018-06-29T12:41:26.598Z,29.00
2018-06-29T12:43:53.800Z,28.90
2018-06-29T12:46:20.942Z,28.80
2018-06-29T12:48:48.083Z,28.70
2018-06-29T12:51:15.185Z,28.80
2018-06-29T12:53:42.302Z,28.70
2018-06-29T12:56:09.449Z,28.90
2018-06-29T12:58:36.597Z,29.00
2018-06-29T13:01:03.693Z,29.10
2018-06-29T13:03:30.897Z,29.30
2018-06-29T13:05:58.149Z,29.20
2018-06-29T13:08:25.339Z,29.00
2018-06-29T13:10:52.581Z,28.90
2018-06-29T13:13:19.702Z,29.00
2018-06-29T13:18:13.922Z,29.10
2018-06-29T13:20:41.261Z,29.00
2018-06-29T13:23:08.374Z,28.90
2018-06-29T13:25:35.502Z,28.90
2018-06-29T13:28:02.626Z,28.80
2018-06-29T13:30:29.730Z,28.90
2018-06-29T13:32:56.903Z,28.90
2018-06-29T13:35:24.066Z,29.00
2018-06-29T13:37:51.376Z,29.10
2018-06-29T13:40:18.524Z,29.10
2018-06-29T13:42:45.642Z,29.10
2018-06-29T13:45:12.769Z,29.10
2018-06-29T13:47:39.866Z,29.00
2018-06-29T13:50:06.978Z,29.10
2018-06-29T13:52:34.103Z,29.00
2018-06-29T13:55:01.449Z,29.10
2018-06-29T13:57:28.650Z,29.10
2018-06-29T14:02:23.107Z,29.20
2018-06-29T14:04:50.202Z,29.30
2018-06-29T14:07:17.369Z,29.30
2018-06-29T14:09:44.482Z,29.20
2018-06-29T14:12:11.623Z,29.20
2018-06-29T14:14:38.765Z,29.00
2018-06-29T14:17:05.979Z,28.90
2018-06-29T14:19:33.089Z,28.90
2018-06-29T14:22:00.218Z,28.90
2018-06-29T14:24:27.405Z,29.10
2018-06-29T14:26:54.620Z,29.10
2018-06-29T14:29:21.829Z,29.10
2018-06-29T14:31:48.918Z,29.20
2018-06-29T14:34:15.996Z,29.20
2018-06-29T14:36:43.089Z,29.30
2018-06-29T14:39:10.799Z,29.30
2018-06-29T14:41:37.913Z,29.20
2018-06-29T14:44:05.286Z,29.00
2018-06-29T14:46:32.423Z,29.10
2018-06-29T14:48:59.554Z,29.20
2018-06-29T14:51:26.765Z,29.00
2018-06-29T14:53:53.970Z,29.10
2018-06-29T14:56:21.149Z,29.30
2018-06-29T14:58:48.270Z,29.20
2018-06-29T15:01:15.395Z,29.00
2018-06-29T15:03:42.498Z,29.00
2018-06-29T15:06:09.630Z,29.00
2018-06-29T15:08:36.726Z,29.00
2018-06-29T15:11:03.852Z,29.00
2018-06-29T15:13:30.966Z,29.00
2018-06-29T15:15:58.103Z,29.10
2018-06-29T15:18:25.274Z,29.10
2018-06-29T15:20:52.469Z,29.10
2018-06-29T15:23:19.605Z,29.20
2018-06-29T15:25:46.707Z,29.30
2018-06-29T15:28:13.833Z,29.30
2018-06-29T15:30:41.495Z,29.30
2018-06-29T15:33:08.598Z,29.20
2018-06-29T15:35:35.978Z,29.20
2018-06-29T15:38:03.090Z,29.10
2018-06-29T15:40:30.351Z,29.10
2018-06-29T15:42:57.507Z,29.10
2018-06-29T15:45:24.785Z,29.20
2018-06-29T15:47:51.958Z,29.20
2018-06-29T15:50:19.095Z,29.10
2018-06-29T15:52:46.196Z,29.10
2018-06-29T15:55:13.336Z,29.10
2018-06-29T15:57:40.477Z,29.20
2018-06-29T16:00:08.670Z,29.10
2018-06-29T16:02:35.791Z,29.10
2018-06-29T16:05:02.945Z,29.10
2018-06-29T16:07:30.170Z,29.10
2018-06-29T16:09:57.344Z,29.00
2018-06-29T16:12:24.696Z,29.00
2018-06-29T16:14:51.879Z,28.90
2018-06-29T16:17:19.054Z,29.10
2018-06-29T16:19:46.182Z,29.00
2018-06-29T16:22:13.302Z,29.00
2018-06-29T16:24:40.421Z,28.80
2018-06-29T16:27:07.551Z,28.80
2018-06-29T16:29:34.679Z,28.90
2018-06-29T16:32:01.788Z,28.90
2018-06-29T16:34:28.950Z,28.90
2018-06-29T16:36:56.137Z,28.80
2018-06-29T16:39:23.708Z,28.80
2018-06-29T16:41:50.874Z,28.90
2018-06-29T16:44:17.999Z,28.80
2018-06-29T16:46:45.087Z,28.90
2018-06-29T16:49:12.226Z,29.00
2018-06-29T16:51:39.345Z,29.00
2018-06-29T16:54:06.464Z,28.90
2018-06-29T16:56:33.582Z,28.80
2018-06-29T16:59:00.682Z,28.80
2018-06-29T17:01:27.874Z,28.80
2018-06-29T17:03:55.166Z,28.70
2018-06-29T17:06:22.359Z,28.70
2018-06-29T17:08:49.462Z,28.70
2018-06-29T17:11:16.583Z,28.70
2018-06-29T17:13:43.679Z,28.70
2018-06-29T17:16:10.881Z,28.60
2018-06-29T17:18:38.031Z,28.60
2018-06-29T17:21:05.097Z,28.60
2018-06-29T17:23:32.232Z,28.60
2018-06-29T17:25:59.352Z,28.60
2018-06-29T17:28:26.631Z,28.50
2018-06-29T17:30:53.781Z,28.40
2018-06-29T17:33:32.045Z,28.40
2018-06-29T17:35:48.038Z,28.40
2018-06-29T17:38:15.186Z,28.40
2018-06-29T17:40:42.293Z,28.30
2018-06-29T17:43:09.410Z,28.30
2018-06-29T17:45:36.518Z,28.30
2018-06-29T17:48:03.637Z,28.30
2018-06-29T17:50:30.749Z,28.20
2018-06-29T17:52:57.955Z,28.20
2018-06-29T17:55:25.192Z,28.10
2018-06-29T17:57:52.439Z,28.00
2018-06-29T18:00:19.821Z,28.10
2018-06-29T18:02:47.055Z,28.00
2018-06-29T18:05:14.164Z,27.90
2018-06-29T18:07:41.335Z,27.90
2018-06-29T18:10:08.534Z,27.80
2018-06-29T18:12:35.665Z,27.80
2018-06-29T18:15:02.759Z,27.70
2018-06-29T18:17:29.863Z,27.70
2018-06-29T18:19:57.021Z,27.60
2018-06-29T18:22:24.265Z,27.60
2018-06-29T18:24:51.738Z,27.50
2018-06-29T18:27:18.860Z,27.40
2018-06-29T18:29:46.000Z,27.30
2018-06-29T18:32:13.120Z,27.30
2018-06-29T18:34:40.262Z,27.10
2018-06-29T18:37:07.407Z,27.10
2018-06-29T18:39:34.534Z,27.00
2018-06-29T18:42:01.748Z,26.90
2018-06-29T18:44:29.006Z,26.70
2018-06-29T18:46:56.210Z,26.60
2018-06-29T18:49:23.362Z,26.50
2018-06-29T18:51:50.462Z,26.40
2018-06-29T18:54:17.586Z,26.30
2018-06-29T18:56:44.715Z,26.10
2018-06-29T18:59:11.816Z,26.10
2018-06-29T19:01:38.943Z,26.00
2018-06-29T19:04:06.070Z,25.90
2018-06-29T19:06:33.408Z,25.70
2018-06-29T19:09:00.530Z,25.70
2018-06-29T19:11:27.773Z,25.60
2018-06-29T19:13:54.944Z,25.40
2018-06-29T19:16:22.138Z,25.30
2018-06-29T19:18:49.291Z,25.20
2018-06-29T19:21:16.489Z,25.10
2018-06-29T19:23:43.613Z,24.90
2018-06-29T19:26:10.714Z,24.90
2018-06-29T19:28:37.817Z,24.90
2018-06-29T19:31:05.005Z,24.80
2018-06-29T19:33:32.142Z,24.70
2018-06-29T19:35:59.399Z,24.60
2018-06-29T19:38:26.594Z,24.40
2018-06-29T19:40:53.723Z,24.40
2018-06-29T19:43:20.850Z,24.30
2018-06-29T19:45:47.955Z,24.20
2018-06-29T19:48:15.086Z,24.10
2018-06-29T19:50:42.195Z,24.00
2018-06-29T19:53:09.334Z,23.80
2018-06-29T19:55:36.510Z,23.60
2018-06-29T19:58:03.614Z,23.60
2018-06-29T20:00:30.731Z,23.60
2018-06-29T20:02:57.913Z,23.50
2018-06-29T20:05:25.060Z,23.40
2018-06-29T20:07:52.408Z,23.40
2018-06-29T20:10:19.547Z,23.40
2018-06-29T20:12:46.690Z,23.30
2018-06-29T20:15:13.794Z,23.20
2018-06-29T20:17:40.919Z,23.00
2018-06-29T20:20:08.820Z,23.00
2018-06-29T20:22:36.301Z,22.90
2018-06-29T20:25:03.719Z,22.90
2018-06-29T20:27:30.816Z,22.80
2018-06-29T20:29:58.000Z,22.80
2018-06-29T20:32:25.168Z,22.80
2018-06-29T20:34:52.346Z,22.90
2018-06-29T20:37:19.458Z,22.80
2018-06-29T20:39:46.714Z,22.70
2018-06-29T20:42:13.837Z,22.70
2018-06-29T20:44:40.953Z,22.60
2018-06-29T20:47:08.078Z,22.60
2018-06-29T20:49:35.244Z,22.40
2018-06-29T20:52:02.305Z,22.40
2018-06-29T20:54:29.430Z,22.40
2018-06-29T20:56:56.650Z,22.40
2018-06-29T20:59:23.818Z,22.40
2018-06-29T21:01:50.950Z,22.50
2018-06-29T21:04:18.074Z,22.70
2018-06-29T21:06:45.250Z,22.80
2018-06-29T21:09:12.389Z,22.80
2018-06-29T21:11:40.047Z,23.00
2018-06-29T21:14:07.282Z,23.10
2018-06-29T21:16:34.410Z,23.10
2018-06-29T21:19:01.578Z,23.00
2018-06-29T21:21:28.777Z,23.10
2018-06-29T21:23:55.917Z,23.20
2018-06-29T21:26:23.163Z,23.40
2018-06-29T21:28:50.286Z,23.30
2018-06-29T21:31:17.430Z,23.40
2018-06-29T21:33:44.560Z,23.40
2018-06-29T21:36:11.639Z,23.50
2018-06-29T21:38:39.101Z,23.50
2018-06-29T21:41:06.223Z,23.40
2018-06-29T21:43:33.477Z,23.50
2018-06-29T21:46:00.749Z,23.50
2018-06-29T21:48:27.898Z,23.40
2018-06-29T21:50:55.039Z,23.40
2018-06-29T21:53:22.210Z,23.40
2018-06-29T21:55:49.301Z,23.40
2018-06-29T21:58:16.425Z,23.40
2018-06-29T22:00:43.883Z,23.40
2018-06-29T22:03:12.105Z,23.40
2018-06-29T22:05:40.395Z,23.40
2018-06-29T22:08:08.482Z,23.40
2018-06-29T22:10:35.854Z,23.40
2018-06-29T22:13:02.983Z,23.40
2018-06-29T22:15:30.232Z,23.40
2018-06-29T22:17:57.400Z,23.40
2018-06-29T22:20:24.761Z,23.30
2018-06-29T22:22:52.169Z,23.40
2018-06-29T22:25:19.846Z,23.40
2018-06-29T22:27:47.229Z,23.30
2018-06-29T22:30:14.371Z,23.30
2018-06-29T22:32:41.473Z,23.20
2018-06-29T22:35:08.614Z,23.20
2018-06-29T22:37:35.829Z,23.10
2018-06-29T22:40:03.339Z,23.00
2018-06-29T22:42:30.537Z,23.10
2018-06-29T22:44:57.764Z,23.10
2018-06-29T22:47:24.937Z,23.00
2018-06-29T22:49:52.071Z,23.00
2018-06-29T22:52:19.209Z,23.00
2018-06-29T22:54:46.305Z,23.00
2018-06-29T22:57:13.421Z,22.90
2018-06-29T22:59:40.654Z,22.80
2018-06-29T23:02:07.774Z,22.90
2018-06-29T23:04:34.894Z,22.80
2018-06-29T23:07:02.080Z,22.80
2018-06-29T23:09:29.179Z,22.80
2018-06-29T23:14:23.834Z,22.70
2018-06-29T23:16:50.967Z,22.60
2018-06-29T23:19:18.082Z,22.60
2018-06-29T23:21:45.184Z,22.60
2018-06-29T23:24:12.295Z,22.50
2018-06-29T23:26:39.448Z,22.50
2018-06-29T23:29:06.561Z,22.40
2018-06-29T23:31:33.678Z,22.30
2018-06-29T23:34:00.950Z,22.30
2018-06-29T23:36:28.103Z,22.20
2018-06-29T23:38:55.264Z,21.90
2018-06-29T23:41:22.415Z,22.00
2018-06-29T23:43:49.525Z,21.90
2018-06-29T23:46:16.614Z,21.90
2018-06-29T23:48:44.518Z,21.90
2018-06-29T23:51:11.634Z,21.80
2018-06-29T23:53:38.738Z,21.60
2018-06-29T23:56:05.870Z,21.80
2018-06-29T23:58:32.977Z,21.80
